Muses Mills, Kentucky
Current Conditions -  °F | °C
As of 2:10 AM on Thursday 18 Dec 2014 (Local Time) from KSYM Reporting Station
Overcast Overcast  
Wind Chill: 21°   Ceiling: 1800
Heat Index: 28°   Visibility: 10mi
Dew Point: 21°   Wind: 7mph
Humidity: 74%   Direction: 330°NNW
Pressure: 30.28"   Gusts: NA
Location:  38.35°N, 83.53°W
Report Text: KSYM 180710Z AUTO 33006KT 10SM OVC018 M02/M06 A3028 RMK AO2
Loading
Personal Weather Stations






























Interactive Weather Map New forecast layout! Learn more

10-Day Weather Forecast

Advertisements
Track Severe Weather on mobile